Terminal Aerodrome Forecast
Issued by NWS Jackson, MS

Home | Current Version | Previous Version | Text Only | Print | Product List | Glossary On
Versions: 1 2 3 4 5 6 7 8 9 10 11 12 13 14 15 16 17 18
847
FTUS44 KMEG 271216 AAA
TAFTUP
TAF AMD
KTUP 271216Z 2712/2812 17007KT P6SM SCT015
     FM271500 19010G18KT P6SM BKN035 BKN090 BKN150
     FM271900 21015G25KT P6SM VCTS BKN035CB OVC090
      TEMPO 2720/2722 3SM -TSRA BKN025CB
     FM272200 24010G20KT P6SM VCTS BKN035CB OVC090
     FM280200 24010KT 5SM -TSRA BR BKN025CB OVC050
      TEMPO 2802/2804 1SM +TSRA BR OVC008CB
     FM280400 30010KT 6SM BR VCSH OVC008=

USA.gov is the U.S. government's official web portal to all federal, state and local government web resources and services.